Weather at Windmill Hill Airport [CLOSED]

Public forecast

Using degrees Fahrenheit for public forecast. Weather courtesy of forecast.io.

Closest aviation weather report (METAR) to Windmill Hill Airport

Closest report is Dallas Fort Worth International Airport, 8.4 nm (15.5 km) SSE.

2024/05/20 01:53 (retrieved 35 minutes ago)

KDFW 200153Z 16011KT 10SM FEW250 29/20 A2979 RMK AO2 SLP076 T02890200

Closest aviation forecast (TAF) to Windmill Hill Airport

Forecast is more than 6 hours old.

Closest forecast is NAS Fort Worth JRB / Carswell Field, 22.1 nm (40.9 km) SW.

2024/05/19 15:21 Ammendment (retrieved 11 hours ago)

TAF AMD KNFW 1915/2015 17015G25KT 9999 SCT050 QNH2982INS AUTOMATED SENSOR METWATCH 1922 TIL 2011 TX34/1921Z TN22/2012Z AMD 1515 FN20070